Jiaonan, China
Current Conditions -  °F | °C
As of 5:00 PM on Sunday 21 Dec 2014 (Local Time) from ZSQD Reporting Station
Clear Clear  
Wind Chill: -7°   Ceiling: Unl
Heat Index: -2°   Visibility: 6mi
Dew Point: -19°   Wind: 9mph
Humidity: 27%   Direction: 290°WNW
Pressure: 30.36"   Gusts: NA
Location:  35.88°N, 119.96°E
Report Text: ZSQD 210900Z 29004MPS CAVOK M02/M19 Q1028 NOSIG
Loading
Personal Weather Stations






























Interactive Weather Map New forecast layout! Learn more

10-Day Weather Forecast

Advertisements
Track Severe Weather on mobile